Hlavní strana
METAR-TAF:

METAR-TAF

Letiště :

Haugesund, Norsko

zeměpisná šířka: 59-21N, zeměpisná délka: 005-13E, výška: 2 m

Aktuální stav počasí

Zpráva byla vytvořena před 33 minutami, v 03:20 UTC
Severoseverozápadní vítr 21 kt
Teplota 4°C
Vlhkost vzduchu 81%
Tlak 1014 hPa
Viditelnost: 8000 m
slabý déšť

METAR: ENHD 210320Z AUTO 33021KT 8000 -RA FEW004/// BKN021/// BKN040/// 04/01 Q1014

Čas: 04:53 (03:53 UTC)

Předpověď počasí

Zpráva byla vytvořena před 1 hodinou a 53 minutami, v 02:00 UTC
Předpověď platná od 21 v 04 UTC do 21 v 12 UTC
Severozápadní vítr 20 kt
Viditelnost 10 km a více
Skoro jasno ve výšce 2000 ft
Oblačno až skoro zataženo ve výšce 4000 ft
Dočasný
od 21 v 04 UTC do 21 v 10 UTC
Oblačno až skoro zataženo ve výšce 1000 ft
Polojasno ve výšce 1800 ft, Cumulonimbus.
dešťové přeháňky
Změna
od 21 v 08 UTC do 21 v 10 UTC
Východojihovýchodní vítr 8 kt

TAF: ENHD 210200Z 2104/2112 31020KT 9999 FEW020 BKN040 TEMPO 2104/2110 SHRA BKN010 SCT018CB BECMG 2108/2110 12008KT

Stav a předpovědi počasí z více než 4 000 letišť (zprávy METAR a TAF).

Červené a žluté tečky na mapě představují dostupné meteorologické stanice.

Když kurzor umístíte na tečku, zobrazí se název stanice.

Pak kliknutím zobrazíte stav a předpověď počasí.

Chcete-li změnit mapu, kliknutím na zelené tlačítko se znaménkem +mapu přiblížíte, kliknutím na zelené tlačítko se znaménkem – mapu oddálíte a kliknutím na zelené šipky přejdete na sousední mapy.


METAR-TAF: